Time;durP1;ratioP1;P1;durP2;ratioP2;P2;SDS_P1;SDS_P2;PMS_P1;PMS_P2;Temp;Humidity;BMP_temperature;BMP_pressure;BME280_temperature;BME280_humidity;BME280_pressure;Samples;Min_cycle;Max_cycle;Signal;HPM_P1;HPM_P2
2022/09/18 00:01:35;;;;;;;7.45;3.88;;;;;;;16.89;77.33;93999.88;5044982;28;20098;-80
2022/09/18 00:04:03;;;;;;;7.20;2.70;;;;;;;16.82;78.29;94000.47;5051322;28;20024;-80
2022/09/18 00:06:33;;;;;;;9.00;2.47;;;;;;;16.42;78.64;93967.56;5069564;28;20056;-78
2022/09/18 00:09:00;;;;;;;4.70;2.47;;;;;;;16.59;78.70;94000.19;5069155;28;20039;-79
2022/09/18 00:11:31;;;;;;;4.25;2.25;;;;;;;16.84;77.74;94057.16;5037680;28;20033;-79
2022/09/18 00:13:57;;;;;;;8.32;2.92;;;;;;;15.88;77.84;93980.47;5050526;28;20039;-79
2022/09/18 00:16:24;;;;;;;5.10;2.90;;;;;;;15.65;79.08;94022.88;5069124;28;20410;-79
2022/09/18 00:18:50;;;;;;;7.60;2.20;;;;;;;15.63;78.34;94051.84;5068992;28;20048;-79
2022/09/18 00:21:23;;;;;;;4.57;2.15;;;;;;;14.54;78.39;93972.94;5071042;28;20445;-78
2022/09/18 00:23:50;;;;;;;3.63;1.42;;;;;;;14.12;78.88;93998.78;5072591;28;20546;-78
2022/09/18 00:26:17;;;;;;;4.35;1.35;;;;;;;14.70;79.00;94121.78;5043238;28;20052;-78
2022/09/18 00:28:42;;;;;;;6.88;1.40;;;;;;;13.91;78.20;94056.59;5071009;28;20089;-78
2022/09/18 00:31:26;;;;;;;6.03;1.35;;;;;;;14.13;77.98;94144.31;5066465;28;20546;-78
2022/09/18 00:33:53;;;;;;;3.15;1.17;;;;;;;13.81;77.87;94097.72;5054353;28;20087;-78
2022/09/18 00:36:19;;;;;;;6.95;1.48;;;;;;;13.32;77.53;94050.41;5054645;28;20225;-78
2022/09/18 00:38:45;;;;;;;3.13;1.17;;;;;;;12.72;76.50;94012.13;5071262;28;20113;-79
2022/09/18 00:41:27;;;;;;;3.92;0.93;;;;;;;13.57;77.24;94137.47;5061083;28;20510;-78
2022/09/18 00:43:58;;;;;;;5.10;1.00;;;;;;;13.06;76.06;94067.16;5072281;28;20491;-80
2022/09/18 00:46:35;;;;;;;3.93;1.23;;;;;;;13.35;76.53;94193.56;5054659;28;20402;-79
2022/09/18 00:49:08;;;;;;;0.98;0.70;;;;;;;13.36;76.70;94187.13;5054099;28;20052;-79
2022/09/18 00:51:36;;;;;;;1.77;0.73;;;;;;;13.15;76.06;94186.97;5071752;28;20029;-79
2022/09/18 00:54:18;;;;;;;3.55;0.70;;;;;;;12.48;75.15;94128.03;5043407;28;20037;-79
2022/09/18 00:56:45;;;;;;;5.20;1.15;;;;;;;12.80;76.75;94194.13;5054219;28;20029;-79
2022/09/18 00:59:14;;;;;;;1.50;0.77;;;;;;;12.71;75.39;94207.41;5072322;28;20182;-79
2022/09/18 01:01:39;;;;;;;0.50;0.50;;;;;;;12.66;75.88;94226.16;5053401;28;20031;-78
2022/09/18 01:04:11;;;;;;;6.53;0.60;;;;;;;12.13;75.30;94178.44;5062506;28;20029;-79
2022/09/18 01:06:46;;;;;;;2.22;0.50;;;;;;;11.77;74.39;94157.34;5054088;28;20028;-79
2022/09/18 01:09:17;;;;;;;0.65;0.50;;;;;;;12.15;75.69;94207.38;5071929;28;20028;-79
2022/09/18 01:11:59;;;;;;;3.92;0.70;;;;;;;11.89;75.85;94178.81;5053629;28;20032;-78
2022/09/18 01:14:54;;;;;;;4.57;0.70;;;;;;;11.88;76.24;94222.41;5069012;28;20039;-80
2022/09/18 01:17:43;;;;;;;4.35;0.52;;;;;;;12.14;78.79;94306.78;5049100;28;20044;-78
2022/09/18 01:20:46;;;;;;;3.97;0.65;;;;;;;11.75;79.10;94324.19;5071553;28;20044;-78
2022/09/18 01:23:37;;;;;;;3.75;1.00;;;;;;;11.63;84.13;94328.44;5052564;28;20044;-78
2022/09/18 01:26:24;;;;;;;1.15;0.50;;;;;;;11.53;81.80;94327.56;5071683;28;20062;-78
2022/09/18 01:28:57;;;;;;;2.88;0.80;;;;;;;11.40;81.93;94344.34;5053278;28;20033;-78
2022/09/18 01:31:43;;;;;;;0.47;0.40;;;;;;;10.81;81.04;94285.06;5044637;28;20031;-78
2022/09/18 01:34:19;;;;;;;0.60;0.30;;;;;;;10.85;80.44;94317.06;5033160;28;20174;-78
2022/09/18 01:36:52;;;;;;;0.30;0.30;;;;;;;10.85;80.34;94359.50;5046147;28;20034;-79
2022/09/18 01:39:27;;;;;;;2.42;0.38;;;;;;;10.70;80.40;94349.19;5032739;28;20031;-79
2022/09/18 01:41:54;;;;;;;0.22;0.20;;;;;;;10.77;80.69;94403.41;5050846;28;20168;-79
2022/09/18 01:44:25;;;;;;;0.30;0.30;;;;;;;10.62;79.77;94413.50;5032531;28;20043;-79
2022/09/18 01:46:52;;;;;;;1.70;0.32;;;;;;;10.64;81.68;94417.44;5033602;28;20036;-80
2022/09/18 01:49:27;;;;;;;0.75;0.40;;;;;;;10.33;81.20;94388.00;5051903;28;20028;-79
2022/09/18 01:52:08;;;;;;;0.45;0.32;;;;;;;10.54;82.02;94417.59;5033830;28;20033;-79
2022/09/18 01:54:37;;;;;;;1.98;0.57;;;;;;;9.94;82.51;94350.47;5020623;28;20036;-79
2022/09/18 01:57:27;;;;;;;0.50;0.40;;;;;;;10.43;84.33;94422.31;5031211;28;20033;-79
2022/09/18 02:00:09;;;;;;;7.07;0.43;;;;;;;10.24;85.23;94424.19;5050365;28;20041;-79
2022/09/18 02:02:53;;;;;;;0.63;0.40;;;;;;;10.37;85.18;94435.94;5050164;28;20119;-79
2022/09/18 02:05:34;;;;;;;0.25;0.20;;;;;;;10.26;82.37;94445.91;5032833;28;20028;-80
2022/09/18 02:08:16;;;;;;;0.35;0.30;;;;;;;9.76;83.51;94377.78;5051425;28;20116;-79
2022/09/18 02:10:47;;;;;;;0.20;0.20;;;;;;;9.73;82.13;94373.03;5049289;28;20732;-79
2022/09/18 02:13:18;;;;;;;0.43;0.30;;;;;;;9.88;82.76;94389.50;5047852;28;20458;-79
2022/09/18 02:15:47;;;;;;;3.30;0.40;;;;;;;9.87;82.95;94432.94;5027743;28;20041;-79
2022/09/18 02:18:21;;;;;;;1.75;0.40;;;;;;;9.73;83.94;94407.44;5033147;28;20029;-79
2022/09/18 02:20:47;;;;;;;0.40;0.40;;;;;;;9.82;80.70;94438.31;5033561;28;20119;-79
2022/09/18 02:23:13;;;;;;;0.88;0.47;;;;;;;10.12;82.76;94479.47;5050418;28;20487;-79
2022/09/18 02:25:47;;;;;;;0.45;0.45;;;;;;;10.03;81.86;94484.63;5038344;28;20457;-79
2022/09/18 02:28:16;;;;;;;1.35;0.50;;;;;;;10.02;80.70;94511.38;5039354;28;20043;-79
2022/09/18 02:30:43;;;;;;;0.80;0.70;;;;;;;9.76;82.11;94465.94;5062903;28;20056;-79
2022/09/18 02:33:31;;;;;;;2.10;0.50;;;;;;;9.62;80.04;94460.53;5052906;28;20119;-79
2022/09/18 02:36:30;;;;;;;0.70;0.70;;;;;;;9.60;81.68;94475.16;5052605;28;20042;-79
2022/09/18 02:39:17;;;;;;;3.58;1.27;;;;;;;9.96;80.59;94555.72;5052763;28;20479;-79
2022/09/18 02:41:49;;;;;;;1.42;0.75;;;;;;;10.00;80.87;94555.91;5070618;28;20039;-79
2022/09/18 02:44:31;;;;;;;1.63;0.80;;;;;;;10.06;82.33;94554.81;5069849;28;20032;-79
2022/09/18 02:47:27;;;;;;;0.82;0.80;;;;;;;9.37;80.85;94457.44;5052238;28;20135;-79
2022/09/18 02:49:56;;;;;;;1.63;0.77;;;;;;;9.97;80.68;94548.56;5070475;28;20154;-79
2022/09/18 02:52:21;;;;;;;0.65;0.65;;;;;;;9.90;78.81;94571.94;5057400;28;20036;-79
2022/09/18 02:55:01;;;;;;;0.82;0.82;;;;;;;9.31;80.71;94490.31;5052051;28;20040;-79
2022/09/18 02:57:33;;;;;;;0.98;0.90;;;;;;;7.96;77.71;94320.31;5046359;28;20032;-79
2022/09/18 03:00:00;;;;;;;1.10;1.00;;;;;;;9.41;80.08;94541.25;5064719;28;20028;-80
2022/09/18 03:02:27;;;;;;;1.92;1.08;;;;;;;9.58;77.14;94594.53;5070394;28;20029;-80
2022/09/18 03:04:53;;;;;;;1.08;0.90;;;;;;;9.29;78.27;94552.25;5069596;28;20131;-79
2022/09/18 03:07:19;;;;;;;2.97;1.00;;;;;;;9.50;75.66;94610.25;5052046;28;20026;-80
2022/09/18 03:09:44;;;;;;;2.80;1.42;;;;;;;8.95;76.45;94525.03;5051138;28;20558;-81
2022/09/18 03:12:10;;;;;;;1.55;1.20;;;;;;;9.38;74.69;94605.34;5047082;28;20044;-80
2022/09/18 03:14:36;;;;;;;4.63;1.20;;;;;;;8.77;75.79;94505.34;5066687;28;20458;-79
2022/09/18 03:17:02;;;;;;;3.15;1.38;;;;;;;9.40;77.88;94579.38;5048397;28;20036;-80
2022/09/18 03:19:27;;;;;;;1.83;1.48;;;;;;;9.66;77.33;94612.47;5070328;28;20043;-78
2022/09/18 03:21:53;;;;;;;2.05;1.33;;;;;;;9.61;76.50;94595.84;5045123;28;20043;-80
2022/09/18 03:24:19;;;;;;;2.58;1.25;;;;;;;8.69;74.42;94490.13;5063691;28;20482;-80
2022/09/18 03:26:45;;;;;;;1.20;1.10;;;;;;;8.85;74.42;94519.84;5051149;28;20035;-81
2022/09/18 03:29:12;;;;;;;1.73;1.30;;;;;;;9.26;75.84;94583.75;5069533;28;20044;-80
2022/09/18 03:31:37;;;;;;;1.05;0.98;;;;;;;8.77;74.74;94507.25;5069790;28;20106;-80
2022/09/18 03:34:03;;;;;;;2.85;1.60;;;;;;;9.16;75.01;94562.66;5069612;28;20036;-81
2022/09/18 03:36:29;;;;;;;2.72;1.30;;;;;;;9.58;75.59;94612.28;5051336;28;20513;-79
2022/09/18 03:38:54;;;;;;;2.78;1.52;;;;;;;8.51;76.15;94446.66;5069839;28;20039;-79
2022/09/18 03:41:21;;;;;;;1.35;1.25;;;;;;;9.45;73.35;94619.03;5070055;28;20039;-80
2022/09/18 03:43:47;;;;;;;1.40;1.30;;;;;;;8.96;74.88;94525.84;5046231;28;20064;-80
2022/09/18 03:46:13;;;;;;;3.42;1.48;;;;;;;9.73;73.02;94633.31;5051278;28;20502;-80
2022/09/18 03:48:38;;;;;;;1.42;1.15;;;;;;;9.80;73.77;94640.91;5064086;28;20103;-80
2022/09/18 03:51:04;;;;;;;2.75;1.30;;;;;;;9.86;73.23;94650.38;5069853;28;20407;-80
2022/09/18 03:53:29;;;;;;;1.83;1.52;;;;;;;9.59;72.98;94600.63;5069845;28;20075;-79
2022/09/18 03:55:55;;;;;;;1.63;1.52;;;;;;;9.74;74.51;94631.44;5068938;28;20054;-79
2022/09/18 03:58:20;;;;;;;1.48;1.38;;;;;;;9.03;73.94;94550.09;5051236;28;20055;-80
2022/09/18 04:00:46;;;;;;;2.05;1.48;;;;;;;9.46;73.35;94625.88;5051769;28;20046;-80
2022/09/18 04:03:11;;;;;;;3.45;2.25;;;;;;;9.16;72.77;94602.34;5051622;28;20037;-80
2022/09/18 04:05:37;;;;;;;3.53;1.70;;;;;;;9.14;73.40;94634.38;5069539;28;20040;-80
2022/09/18 04:08:04;;;;;;;2.30;2.10;;;;;;;9.01;74.31;94595.34;5068720;28;20036;-80
2022/09/18 04:10:32;;;;;;;2.70;2.05;;;;;;;9.16;72.57;94616.38;5052070;28;20470;-80
2022/09/18 04:12:58;;;;;;;2.22;2.00;;;;;;;9.28;73.64;94643.25;5051737;28;20040;-79
2022/09/18 04:15:23;;;;;;;2.75;1.80;;;;;;;9.38;73.74;94689.25;5069529;28;20495;-79
2022/09/18 04:17:49;;;;;;;1.70;1.58;;;;;;;8.82;73.05;94634.09;5069416;28;20044;-79
2022/09/18 04:20:14;;;;;;;3.28;2.58;;;;;;;9.31;73.76;94694.06;5038218;28;20148;-79
2022/09/18 04:22:40;;;;;;;3.10;2.85;;;;;;;9.24;73.76;94695.16;5067378;28;20032;-79
2022/09/18 04:25:06;;;;;;;2.88;2.58;;;;;;;8.81;74.71;94670.31;5050819;28;20040;-80
2022/09/18 04:27:33;;;;;;;4.15;2.40;;;;;;;8.39;73.33;94604.75;5069086;28;20564;-81
2022/09/18 04:29:59;;;;;;;2.80;2.50;;;;;;;9.04;74.39;94710.38;5035237;28;20052;-80
2022/09/18 04:32:24;;;;;;;3.38;2.42;;;;;;;8.43;75.44;94628.78;5069864;28;20035;-79
2022/09/18 04:34:50;;;;;;;4.72;3.00;;;;;;;9.02;77.26;94723.88;5068540;28;20495;-80
2022/09/18 04:37:15;;;;;;;7.07;3.05;;;;;;;8.32;77.81;94630.69;5049042;28;20495;-80
2022/09/18 04:39:40;;;;;;;4.32;3.22;;;;;;;8.55;78.60;94673.38;5068882;28;20094;-79
2022/09/18 04:42:06;;;;;;;3.97;3.03;;;;;;;8.21;77.18;94628.34;5050691;28;20571;-79
2022/09/18 04:44:31;;;;;;;4.45;4.03;;;;;;;8.59;79.26;94675.22;5069065;28;20040;-79
2022/09/18 04:46:57;;;;;;;5.53;3.40;;;;;;;8.22;79.21;94600.88;5068731;28;20115;-79
2022/09/18 04:49:22;;;;;;;3.80;3.40;;;;;;;8.98;79.01;94745.88;5049998;28;20131;-79
2022/09/18 04:51:49;;;;;;;7.18;4.88;;;;;;;8.95;79.08;94739.25;5069325;28;20056;-79
2022/09/18 04:54:14;;;;;;;5.38;3.47;;;;;;;9.16;79.76;94748.66;5050351;28;20525;-79
2022/09/18 04:56:40;;;;;;;4.28;3.35;;;;;;;8.75;78.63;94689.16;5050988;28;20040;-79
2022/09/18 04:59:06;;;;;;;4.63;3.65;;;;;;;9.25;77.83;94754.94;5068305;28;20498;-80
2022/09/18 05:01:33;;;;;;;4.15;3.72;;;;;;;8.90;79.81;94697.78;5050620;28;20066;-80
2022/09/18 05:03:58;;;;;;;4.22;3.47;;;;;;;8.86;77.90;94702.00;5051037;28;20590;-80
2022/09/18 05:06:24;;;;;;;5.65;3.28;;;;;;;9.18;78.41;94740.44;5051052;28;20044;-80
2022/09/18 05:08:49;;;;;;;4.15;3.05;;;;;;;9.29;76.80;94782.44;5054440;28;20070;-80
2022/09/18 05:11:15;;;;;;;3.28;2.47;;;;;;;9.14;75.83;94777.25;5054313;28;20487;-80
2022/09/18 05:13:42;;;;;;;5.97;3.40;;;;;;;7.90;77.14;94619.75;5072498;28;20032;-79
2022/09/18 05:16:08;;;;;;;3.67;3.28;;;;;;;8.22;76.24;94664.28;5069344;28;20073;-80
2022/09/18 05:18:33;;;;;;;4.72;3.13;;;;;;;8.80;76.35;94758.63;5053776;28;20119;-80
2022/09/18 05:21:03;;;;;;;3.55;2.75;;;;;;;8.16;77.44;94692.56;5054100;28;20067;-79
2022/09/18 05:23:29;;;;;;;4.10;2.78;;;;;;;9.15;77.07;94828.31;5064430;28;20037;-80
2022/09/18 05:25:55;;;;;;;6.40;2.75;;;;;;;8.33;76.89;94695.69;5066447;28;20407;-79
2022/09/18 05:28:20;;;;;;;4.40;3.50;;;;;;;8.95;76.78;94765.69;5072783;28;20040;-79
2022/09/18 05:30:45;;;;;;;5.00;2.90;;;;;;;8.85;74.98;94765.75;5071284;28;20509;-79
2022/09/18 05:33:11;;;;;;;3.53;3.05;;;;;;;9.25;75.17;94820.28;5054564;28;20036;-79
2022/09/18 05:35:38;;;;;;;4.05;3.10;;;;;;;9.04;76.07;94764.06;5054079;28;20044;-79
2022/09/18 05:38:04;;;;;;;4.25;3.17;;;;;;;9.35;74.54;94822.91;5051708;28;20036;-80
2022/09/18 05:40:36;;;;;;;3.50;2.75;;;;;;;9.34;75.16;94839.03;5053181;28;20028;-80
2022/09/18 05:43:03;;;;;;;2.97;2.67;;;;;;;8.64;74.26;94745.75;5071591;28;20033;-79
2022/09/18 05:45:28;;;;;;;2.80;2.50;;;;;;;9.00;74.47;94791.34;5071901;28;20032;-79
2022/09/18 05:47:57;;;;;;;4.20;2.47;;;;;;;9.45;74.49;94844.03;5072483;28;20107;-80
2022/09/18 05:50:23;;;;;;;3.85;3.20;;;;;;;9.31;75.80;94790.09;5053809;28;20461;-80
2022/09/18 05:53:06;;;;;;;5.93;3.28;;;;;;;9.52;75.11;94806.66;5071356;28;20492;-80
2022/09/18 05:55:32;;;;;;;3.67;2.97;;;;;;;9.45;73.50;94793.72;5053437;28;20522;-79
2022/09/18 05:57:59;;;;;;;4.80;2.85;;;;;;;9.52;73.49;94814.59;5072016;28;20037;-79
2022/09/18 06:00:26;;;;;;;4.22;3.13;;;;;;;9.78;73.36;94852.25;5053846;28;20040;-79
2022/09/18 06:02:59;;;;;;;7.07;3.20;;;;;;;8.91;72.62;94725.00;5071204;28;20040;-79
2022/09/18 06:05:27;;;;;;;5.85;2.30;;;;;;;9.38;72.82;94819.72;5071119;28;20094;-80
2022/09/18 06:07:52;;;;;;;4.53;2.28;;;;;;;9.58;71.61;94848.69;5051455;28;20035;-80
2022/09/18 06:10:19;;;;;;;6.35;2.72;;;;;;;9.18;72.72;94804.72;5067750;28;20021;-79
2022/09/18 06:12:45;;;;;;;3.42;2.08;;;;;;;9.48;73.51;94851.38;5071276;28;20376;-80
2022/09/18 06:15:11;;;;;;;4.70;2.70;;;;;;;9.17;74.41;94774.03;5047038;28;20059;-80
2022/09/18 06:17:38;;;;;;;3.55;2.40;;;;;;;8.99;74.01;94736.88;5043864;28;20529;-80
2022/09/18 06:20:05;;;;;;;4.38;2.40;;;;;;;9.74;72.71;94867.91;5071820;28;20083;-80
2022/09/18 06:22:32;;;;;;;2.40;2.17;;;;;;;8.82;73.25;94747.78;5052996;28;20607;-79
2022/09/18 06:24:57;;;;;;;3.00;2.13;;;;;;;9.57;72.02;94825.13;5052718;28;20028;-79
2022/09/18 06:27:23;;;;;;;6.13;1.80;;;;;;;9.19;70.61;94805.53;5071604;28;20559;-79
2022/09/18 06:29:49;;;;;;;3.08;1.73;;;;;;;9.82;72.80;94887.72;5042775;28;20044;-82
2022/09/18 06:32:15;;;;;;;1.80;1.42;;;;;;;9.29;71.62;94827.44;5070936;28;20016;-79
2022/09/18 06:34:40;;;;;;;3.75;1.63;;;;;;;9.53;71.83;94874.41;5070028;28;20466;-79
2022/09/18 06:37:10;;;;;;;2.42;1.42;;;;;;;9.69;71.76;94905.00;5034072;28;20029;-79
2022/09/18 06:39:35;;;;;;;3.20;1.55;;;;;;;9.47;71.57;94899.31;5069988;28;20032;-79
2022/09/18 06:42:01;;;;;;;2.15;1.27;;;;;;;9.12;71.21;94852.66;5070346;28;20032;-79
2022/09/18 06:44:26;;;;;;;3.85;1.27;;;;;;;9.09;71.64;94861.91;5052191;28;20023;-80
2022/09/18 06:46:51;;;;;;;2.50;1.38;;;;;;;9.37;71.23;94878.19;5052530;28;20388;-80
2022/09/18 06:49:17;;;;;;;2.78;1.30;;;;;;;9.49;70.76;94899.84;5070239;28;20052;-80
2022/09/18 06:51:44;;;;;;;3.67;1.65;;;;;;;9.33;70.95;94861.28;5070051;28;20036;-80
2022/09/18 06:54:12;;;;;;;3.70;1.58;;;;;;;9.24;71.13;94856.53;5059854;28;20435;-79
2022/09/18 06:56:37;;;;;;;3.13;1.33;;;;;;;9.85;70.48;94938.28;5034468;28;20041;-80
2022/09/18 06:59:03;;;;;;;2.38;1.60;;;;;;;9.16;70.53;94835.94;5052334;28;20108;-80
2022/09/18 07:01:28;;;;;;;2.55;1.52;;;;;;;9.72;71.53;94909.75;5070475;28;20036;-80
2022/09/18 07:03:54;;;;;;;5.53;1.60;;;;;;;8.70;70.97;94721.66;5051253;28;20028;-80
2022/09/18 07:06:19;;;;;;;2.55;1.70;;;;;;;9.79;70.87;94891.72;5071016;28;20032;-80
2022/09/18 07:08:45;;;;;;;3.38;1.80;;;;;;;9.64;69.83;94852.88;5052474;28;20037;-79
2022/09/18 07:11:10;;;;;;;4.53;1.52;;;;;;;10.22;68.20;94947.63;5052196;28;20030;-80
2022/09/18 07:13:36;;;;;;;2.95;1.60;;;;;;;10.29;69.26;94942.81;5051222;28;20197;-79
2022/09/18 07:16:02;;;;;;;5.90;1.80;;;;;;;10.34;66.69;94937.44;5066919;28;20025;-79
2022/09/18 07:18:28;;;;;;;4.63;1.63;;;;;;;9.84;67.76;94848.53;5043839;28;20617;-79
2022/09/18 07:20:53;;;;;;;2.25;1.45;;;;;;;10.33;65.96;94919.97;5052127;28;20020;-79
2022/09/18 07:23:19;;;;;;;5.10;1.55;;;;;;;10.13;65.70;94881.16;5031395;28;20487;-79
2022/09/18 07:25:45;;;;;;;1.40;1.30;;;;;;;10.24;64.69;94890.59;5065396;28;20040;-79
2022/09/18 07:28:11;;;;;;;1.92;1.60;;;;;;;10.02;64.01;94845.97;5070109;28;20043;-79
2022/09/18 07:30:38;;;;;;;3.45;1.25;;;;;;;10.68;62.82;94966.63;5068676;28;20502;-79
2022/09/18 07:33:05;;;;;;;2.17;1.58;;;;;;;10.35;62.36;94899.28;5051862;28;20032;-79
2022/09/18 07:35:31;;;;;;;5.90;2.22;;;;;;;10.56;62.91;94929.03;5050766;28;20166;-79
2022/09/18 07:38:02;;;;;;;2.78;1.63;;;;;;;10.70;63.01;94935.28;5051714;28;20033;-79
2022/09/18 07:40:28;;;;;;;2.50;1.63;;;;;;;10.74;62.62;94923.84;5045891;28;20043;-79
2022/09/18 07:43:07;;;;;;;1.80;1.40;;;;;;;10.55;61.35;94895.66;5067857;28;20036;-79
2022/09/18 07:45:34;;;;;;;2.80;1.58;;;;;;;10.44;63.32;94871.91;5050613;28;20032;-79
2022/09/18 07:48:04;;;;;;;3.40;1.38;;;;;;;10.70;62.98;94936.06;5069712;28;20564;-79
2022/09/18 07:50:30;;;;;;;1.63;1.50;;;;;;;10.67;62.70;94923.38;5069484;28;20035;-79
2022/09/18 07:52:58;;;;;;;2.90;1.75;;;;;;;11.08;63.45;94944.97;5069402;28;20407;-79
2022/09/18 07:55:25;;;;;;;2.30;1.60;;;;;;;11.19;62.49;94951.78;5068345;28;20077;-79
2022/09/18 07:57:57;;;;;;;1.15;1.05;;;;;;;10.90;60.55;94945.72;5042030;28;20561;-79
2022/09/18 08:00:23;;;;;;;;;;;;;;;10.90;61.22;94974.09;5060743;28;20110;-79
2022/09/18 08:02:48;;;;;;;1.95;1.08;;;;;;;10.39;61.27;94858.66;5069247;28;20705;-79
2022/09/18 08:05:14;;;;;;;2.83;1.20;;;;;;;10.93;62.24;94904.53;5050879;28;20119;-80
2022/09/18 08:07:40;;;;;;;2.35;1.40;;;;;;;11.15;61.81;94949.94;5051194;28;20125;-79
2022/09/18 08:10:06;;;;;;;2.40;1.20;;;;;;;10.57;60.27;94870.44;5069399;28;20025;-80
2022/09/18 08:12:32;;;;;;;1.88;1.30;;;;;;;10.75;61.03;94861.78;5069624;28;20020;-79
2022/09/18 08:14:58;;;;;;;2.05;1.30;;;;;;;10.72;62.07;94857.03;5068723;28;20039;-79
2022/09/18 08:17:24;;;;;;;2.97;1.50;;;;;;;11.04;61.03;94928.06;5058273;28;20095;-79
2022/09/18 08:19:50;;;;;;;3.58;1.60;;;;;;;11.11;60.63;94911.78;5051703;28;20051;-79
2022/09/18 08:22:15;;;;;;;1.80;1.45;;;;;;;11.42;60.81;94962.66;5051692;28;20025;-81
2022/09/18 08:24:41;;;;;;;1.95;1.60;;;;;;;10.24;60.43;94757.31;5068565;28;20036;-81
2022/09/18 08:27:06;;;;;;;2.78;1.55;;;;;;;10.68;60.14;94852.56;5044330;28;20467;-80
2022/09/18 08:29:32;;;;;;;1.88;1.52;;;;;;;10.93;59.40;94918.59;5046589;28;20057;-80
2022/09/18 08:31:57;;;;;;;3.72;1.75;;;;;;;10.89;59.95;94906.19;5051079;28;20062;-79
2022/09/18 08:34:23;;;;;;;2.33;1.40;;;;;;;10.90;59.83;94895.31;5050296;28;20090;-79
2022/09/18 08:36:49;;;;;;;2.13;1.40;;;;;;;10.66;59.65;94854.72;5049922;28;20044;-79
2022/09/18 08:39:14;;;;;;;4.07;1.73;;;;;;;11.18;58.86;94931.59;5069212;28;20028;-79
2022/09/18 08:42:12;;;;;;;2.05;1.50;;;;;;;11.30;59.91;94972.88;5053640;28;20036;-79
2022/09/18 08:45:05;;;;;;;1.30;1.20;;;;;;;11.25;59.53;94963.13;5047965;28;20048;-80
2022/09/18 08:47:39;;;;;;;1.88;1.20;;;;;;;11.42;59.81;94960.81;5072077;28;20471;-79
2022/09/18 08:50:14;;;;;;;1.60;1.45;;;;;;;11.07;60.40;94908.91;5047391;28;20036;-80
2022/09/18 08:52:44;;;;;;;4.30;1.30;;;;;;;10.65;60.84;94853.91;5072115;28;20107;-80
2022/09/18 08:55:26;;;;;;;3.03;1.27;;;;;;;11.29;61.00;94964.13;5054764;28;20517;-79
2022/09/18 08:57:57;;;;;;;;;;;;;;;11.44;60.34;94985.19;5051713;28;20060;-79
2022/09/18 09:00:30;;;;;;;1.60;1.50;;;;;;;10.94;60.94;94930.00;5045083;28;19923;-79
2022/09/18 09:03:23;;;;;;;1.40;1.23;;;;;;;11.39;61.38;94966.66;5054553;28;20566;-79
2022/09/18 09:05:56;;;;;;;2.33;1.55;;;;;;;10.88;60.73;94873.56;5072438;28;20483;-79
2022/09/18 09:08:58;;;;;;;2.20;1.10;;;;;;;11.62;58.52;95052.72;5071839;28;20040;-79
2022/09/18 09:11:23;;;;;;;2.13;1.10;;;;;;;11.57;58.08;94997.00;5054195;28;20024;-79
2022/09/18 09:14:07;;;;;;;1.63;1.15;;;;;;;11.12;57.08;94931.94;5054103;28;20047;-80
2022/09/18 09:16:32;;;;;;;2.55;1.60;;;;;;;11.71;57.75;95002.41;5043000;28;20097;-79
2022/09/18 09:19:19;;;;;;;1.58;1.10;;;;;;;10.86;56.79;94890.81;5053507;28;20469;-79
2022/09/18 09:21:54;;;;;;;2.65;1.55;;;;;;;11.14;57.76;94911.22;5053923;28;20047;-79
2022/09/18 09:24:33;;;;;;;5.70;1.92;;;;;;;12.16;57.92;95004.53;5053370;28;20748;-79
2022/09/18 09:27:10;;;;;;;3.50;1.73;;;;;;;12.04;57.24;94995.41;5061450;28;20086;-79
2022/09/18 09:29:41;;;;;;;2.90;1.55;;;;;;;11.50;56.38;94949.56;5047009;28;20052;-79
2022/09/18 09:32:29;;;;;;;2.42;1.30;;;;;;;11.86;55.90;95026.19;5053279;28;20119;-79
2022/09/18 09:35:03;;;;;;;2.72;1.60;;;;;;;11.53;58.17;94994.13;5046541;28;20137;-79
2022/09/18 09:37:42;;;;;;;1.73;1.42;;;;;;;11.21;57.04;94952.25;5072175;28;20028;-79
2022/09/18 09:40:42;;;;;;;2.83;1.30;;;;;;;11.73;57.17;95042.78;5047436;28;20534;-80
2022/09/18 09:43:40;;;;;;;6.03;1.55;;;;;;;11.25;57.56;94968.44;5052541;28;20037;-80
2022/09/18 09:46:29;;;;;;;3.35;1.90;;;;;;;11.22;57.13;94979.59;5036656;28;20499;-80
2022/09/18 09:49:07;;;;;;;2.20;1.92;;;;;;;11.60;57.09;95009.72;5054603;28;20419;-80
2022/09/18 09:51:42;;;;;;;2.53;1.83;;;;;;;11.33;57.02;94943.91;5068582;28;20036;-79
2022/09/18 09:54:11;;;;;;;6.68;2.45;;;;;;;11.86;56.44;94973.03;5041466;28;20028;-79
2022/09/18 09:56:47;;;;;;;5.60;2.97;;;;;;;11.97;54.94;95059.53;5048168;28;20035;-80
2022/09/18 09:59:15;;;;;;;11.13;3.92;;;;;;;12.13;55.33;95044.97;5050751;28;20115;-79
2022/09/18 10:02:22;;;;;;;6.68;4.10;;;;;;;12.29;55.45;95054.31;5044287;28;20039;-81
2022/09/18 10:04:53;;;;;;;4.18;3.10;;;;;;;12.23;55.19;95074.06;5041984;28;20045;-79
2022/09/18 10:07:22;;;;;;;4.97;3.03;;;;;;;12.12;55.51;95075.31;5065020;28;20782;-79
2022/09/18 10:10:09;;;;;;;5.38;3.50;;;;;;;12.01;55.54;95084.47;5062923;28;20377;-80
2022/09/18 10:12:59;;;;;;;3.78;3.38;;;;;;;11.99;57.31;95058.16;5036603;28;20039;-80
2022/09/18 10:15:37;;;;;;;5.55;3.72;;;;;;;12.13;57.06;95063.56;5059477;28;20494;-79
2022/09/18 10:18:08;;;;;;;7.07;4.47;;;;;;;11.24;56.72;94956.22;5023041;28;20082;-79
2022/09/18 10:20:35;;;;;;;7.30;5.53;;;;;;;11.52;57.29;95032.38;5052059;28;20025;-78
2022/09/18 10:23:08;;;;;;;5.82;5.03;;;;;;;11.89;57.07;95045.03;5049093;28;20044;-79
2022/09/18 10:25:59;;;;;;;5.10;4.60;;;;;;;11.95;57.93;95109.53;5070811;28;20037;-81
2022/09/18 10:28:28;;;;;;;5.13;4.47;;;;;;;11.85;58.01;95083.84;5071178;28;20033;-79
2022/09/18 10:31:09;;;;;;;5.00;4.03;;;;;;;11.44;57.86;95014.41;5069492;28;20435;-79
2022/09/18 10:33:39;;;;;;;11.00;4.70;;;;;;;11.98;57.58;95069.88;5070924;28;20028;-80
2022/09/18 10:36:16;;;;;;;4.97;4.10;;;;;;;11.71;56.91;94999.78;5052688;28;20605;-80
2022/09/18 10:38:42;;;;;;;5.07;4.10;;;;;;;11.94;56.07;95001.63;5059968;28;20584;-79
2022/09/18 10:41:16;;;;;;;4.40;4.00;;;;;;;12.98;54.50;95111.31;5060644;28;20498;-79
2022/09/18 10:43:53;;;;;;;7.00;3.83;;;;;;;13.06;52.53;95024.69;5053678;28;20653;-79
2022/09/18 10:46:24;;;;;;;7.47;4.55;;;;;;;13.89;51.63;95080.47;5071469;28;20036;-79
2022/09/18 10:48:50;;;;;;;6.07;5.07;;;;;;;13.11;50.39;94961.50;5052975;28;20947;-81
2022/09/18 10:51:20;;;;;;;5.25;4.43;;;;;;;13.85;49.81;95094.69;5051763;28;20040;-80
2022/09/18 10:54:00;;;;;;;7.68;4.65;;;;;;;14.35;50.70;95092.88;5052348;28;20601;-79
2022/09/18 10:56:26;;;;;;;11.95;4.28;;;;;;;14.20;50.38;95099.31;5070028;28;20068;-79
2022/09/18 10:58:52;;;;;;;6.57;4.13;;;;;;;14.11;50.20;95041.69;5048675;28;20098;-80
2022/09/18 11:01:18;;;;;;;8.35;4.57;;;;;;;14.46;50.30;95091.63;5038043;28;20128;-79
2022/09/18 11:04:02;;;;;;;4.05;3.65;;;;;;;13.31;50.55;94968.34;5059764;28;20426;-79
2022/09/18 11:06:32;;;;;;;4.50;3.80;;;;;;;13.22;50.56;95019.91;5066790;28;20033;-79
2022/09/18 11:09:01;;;;;;;4.50;3.80;;;;;;;13.03;51.53;95009.31;5064802;28;20036;-79
2022/09/18 11:11:32;;;;;;;5.22;4.05;;;;;;;13.79;50.45;95050.56;5069950;28;20044;-79
2022/09/18 11:14:04;;;;;;;7.28;4.43;;;;;;;13.56;49.74;95060.34;5052107;28;20043;-79
2022/09/18 11:16:36;;;;;;;6.30;3.28;;;;;;;13.75;48.19;94986.41;5052489;28;20529;-79
2022/09/18 11:19:03;;;;;;;10.98;3.67;;;;;;;14.75;48.22;95099.25;5070761;28;20395;-79
2022/09/18 11:21:29;;;;;;;7.13;3.42;;;;;;;14.75;48.30;95031.75;5042036;28;20032;-79
2022/09/18 11:24:03;;;;;;;5.20;2.92;;;;;;;15.06;47.11;95068.09;5069867;28;20414;-79
2022/09/18 11:26:30;;;;;;;5.70;3.70;;;;;;;14.67;47.04;95044.72;5045715;28;20036;-79
2022/09/18 11:29:01;;;;;;;11.25;3.15;;;;;;;15.08;47.00;95129.22;5044460;28;20036;-79
2022/09/18 11:31:39;;;;;;;3.88;3.13;;;;;;;14.77;46.51;95069.59;5044719;28;20483;-79
2022/09/18 11:34:17;;;;;;;3.92;3.00;;;;;;;15.35;46.49;95070.31;5051323;28;20076;-79
2022/09/18 11:36:48;;;;;;;3.38;2.28;;;;;;;15.08;45.58;95099.84;5052235;28;20058;-79
2022/09/18 11:39:21;;;;;;;5.20;2.53;;;;;;;14.77;46.82;95030.34;5069991;28;20037;-79
2022/09/18 11:41:48;;;;;;;6.28;2.50;;;;;;;15.63;45.25;95113.75;5051114;28;20124;-79
2022/09/18 11:44:26;;;;;;;6.13;2.30;;;;;;;15.34;44.74;95049.25;5050949;28;20150;-79
2022/09/18 11:47:18;;;;;;;3.80;2.17;;;;;;;15.32;44.11;95028.19;5051400;28;20036;-79
2022/09/18 11:49:53;;;;;;;5.70;2.38;;;;;;;15.43;44.58;95052.75;5069772;28;20043;-79
2022/09/18 11:52:29;;;;;;;4.63;1.98;;;;;;;15.34;43.74;95070.63;5058275;28;20043;-79
2022/09/18 11:55:18;;;;;;;7.38;2.47;;;;;;;15.59;45.07;95117.34;5061758;28;20411;-82